sensor_id;sensor_type;location;lat;lon;timestamp;temperature;humidity
51215;DHT22;63849;47.546;19.254;2023-03-21T00:01:12;10.60;68.70
51215;DHT22;63849;47.546;19.254;2023-03-21T00:03:38;10.60;68.30
51215;DHT22;63849;47.546;19.254;2023-03-21T00:06:05;10.30;69.10
51215;DHT22;63849;47.546;19.254;2023-03-21T00:08:32;10.40;69.70
51215;DHT22;63849;47.546;19.254;2023-03-21T00:11:00;10.30;69.60
51215;DHT22;63849;47.546;19.254;2023-03-21T00:13:28;10.20;69.80
51215;DHT22;63849;47.546;19.254;2023-03-21T00:16:09;10.20;69.80
51215;DHT22;63849;47.546;19.254;2023-03-21T00:18:41;10.10;70.10
51215;DHT22;63849;47.546;19.254;2023-03-21T00:21:10;10.30;70.40
51215;DHT22;63849;47.546;19.254;2023-03-21T00:23:36;10.40;70.20
51215;DHT22;63849;47.546;19.254;2023-03-21T00:26:02;10.30;69.80
51215;DHT22;63849;47.546;19.254;2023-03-21T00:28:28;10.30;70.30
51215;DHT22;63849;47.546;19.254;2023-03-21T00:30:57;10.30;69.60
51215;DHT22;63849;47.546;19.254;2023-03-21T00:33:24;10.30;70.10
51215;DHT22;63849;47.546;19.254;2023-03-21T00:35:50;10.10;70.40
51215;DHT22;63849;47.546;19.254;2023-03-21T00:38:17;9.90;70.50
51215;DHT22;63849;47.546;19.254;2023-03-21T00:40:43;10.10;71.00
51215;DHT22;63849;47.546;19.254;2023-03-21T00:43:09;10.20;70.80
51215;DHT22;63849;47.546;19.254;2023-03-21T00:45:37;10.20;71.10
51215;DHT22;63849;47.546;19.254;2023-03-21T00:48:04;10.30;71.20
51215;DHT22;63849;47.546;19.254;2023-03-21T00:50:30;10.50;71.50
51215;DHT22;63849;47.546;19.254;2023-03-21T00:52:57;10.60;71.00
51215;DHT22;63849;47.546;19.254;2023-03-21T00:55:24;10.60;71.10
51215;DHT22;63849;47.546;19.254;2023-03-21T00:57:50;10.50;70.60
51215;DHT22;63849;47.546;19.254;2023-03-21T01:00:16;10.40;71.40
51215;DHT22;63849;47.546;19.254;2023-03-21T01:02:43;10.50;71.30
51215;DHT22;63849;47.546;19.254;2023-03-21T01:05:27;10.40;71.20
51215;DHT22;63849;47.546;19.254;2023-03-21T01:08:13;10.50;71.30
51215;DHT22;63849;47.546;19.254;2023-03-21T01:10:42;10.60;71.30
51215;DHT22;63849;47.546;19.254;2023-03-21T01:13:10;10.50;71.00
51215;DHT22;63849;47.546;19.254;2023-03-21T01:15:37;10.60;71.20
51215;DHT22;63849;47.546;19.254;2023-03-21T01:18:07;10.70;71.50
51215;DHT22;63849;47.546;19.254;2023-03-21T01:20:33;10.80;71.30
51215;DHT22;63849;47.546;19.254;2023-03-21T01:22:59;10.70;70.80
51215;DHT22;63849;47.546;19.254;2023-03-21T01:25:25;10.60;70.80
51215;DHT22;63849;47.546;19.254;2023-03-21T01:27:51;10.50;71.10
51215;DHT22;63849;47.546;19.254;2023-03-21T01:30:19;10.70;71.40
51215;DHT22;63849;47.546;19.254;2023-03-21T01:32:46;10.80;71.10
51215;DHT22;63849;47.546;19.254;2023-03-21T01:35:12;10.80;71.30
51215;DHT22;63849;47.546;19.254;2023-03-21T01:37:38;10.80;71.30
51215;DHT22;63849;47.546;19.254;2023-03-21T01:40:05;10.90;70.90
51215;DHT22;63849;47.546;19.254;2023-03-21T01:42:31;10.90;70.80
51215;DHT22;63849;47.546;19.254;2023-03-21T01:45:05;10.90;70.80
51215;DHT22;63849;47.546;19.254;2023-03-21T01:47:31;10.80;70.70
51215;DHT22;63849;47.546;19.254;2023-03-21T01:50:00;10.80;70.80
51215;DHT22;63849;47.546;19.254;2023-03-21T01:52:37;10.80;71.10
51215;DHT22;63849;47.546;19.254;2023-03-21T01:55:06;10.90;71.10
51215;DHT22;63849;47.546;19.254;2023-03-21T01:57:38;10.90;70.90
51215;DHT22;63849;47.546;19.254;2023-03-21T02:00:06;10.90;70.80
51215;DHT22;63849;47.546;19.254;2023-03-21T02:02:39;10.70;70.50
51215;DHT22;63849;47.546;19.254;2023-03-21T02:05:17;10.70;71.10
51215;DHT22;63849;47.546;19.254;2023-03-21T02:07:44;10.60;71.20
51215;DHT22;63849;47.546;19.254;2023-03-21T02:10:13;10.70;70.90
51215;DHT22;63849;47.546;19.254;2023-03-21T02:12:39;10.60;70.90
51215;DHT22;63849;47.546;19.254;2023-03-21T02:15:06;10.50;71.30
51215;DHT22;63849;47.546;19.254;2023-03-21T02:17:59;10.40;71.40
51215;DHT22;63849;47.546;19.254;2023-03-21T02:37:48;10.30;72.10
51215;DHT22;63849;47.546;19.254;2023-03-21T02:40:22;10.30;72.00
51215;DHT22;63849;47.546;19.254;2023-03-21T02:46:14;10.10;72.50
51215;DHT22;63849;47.546;19.254;2023-03-21T02:48:58;10.00;72.90
51215;DHT22;63849;47.546;19.254;2023-03-21T02:51:26;10.20;72.50
51215;DHT22;63849;47.546;19.254;2023-03-21T02:54:00;10.10;72.50
51215;DHT22;63849;47.546;19.254;2023-03-21T02:56:27;10.20;72.40
51215;DHT22;63849;47.546;19.254;2023-03-21T02:58:53;10.10;72.30
51215;DHT22;63849;47.546;19.254;2023-03-21T03:01:19;10.00;72.50
51215;DHT22;63849;47.546;19.254;2023-03-21T03:03:45;10.00;72.80
51215;DHT22;63849;47.546;19.254;2023-03-21T03:06:19;10.00;73.00
51215;DHT22;63849;47.546;19.254;2023-03-21T03:08:59;9.80;73.10
51215;DHT22;63849;47.546;19.254;2023-03-21T03:11:39;9.90;73.10
51215;DHT22;63849;47.546;19.254;2023-03-21T03:20:14;9.80;73.40
51215;DHT22;63849;47.546;19.254;2023-03-21T03:23:06;9.80;73.70
51215;DHT22;63849;47.546;19.254;2023-03-21T03:25:51;9.90;73.50
51215;DHT22;63849;47.546;19.254;2023-03-21T03:28:25;9.90;73.60
51215;DHT22;63849;47.546;19.254;2023-03-21T03:30:53;10.10;73.70
51215;DHT22;63849;47.546;19.254;2023-03-21T03:33:20;10.30;73.60
51215;DHT22;63849;47.546;19.254;2023-03-21T03:35:49;10.30;73.30
51215;DHT22;63849;47.546;19.254;2023-03-21T03:38:17;10.30;73.20
51215;DHT22;63849;47.546;19.254;2023-03-21T03:40:50;10.30;72.70
51215;DHT22;63849;47.546;19.254;2023-03-21T03:43:23;10.30;72.80
51215;DHT22;63849;47.546;19.254;2023-03-21T03:46:00;10.40;72.80
51215;DHT22;63849;47.546;19.254;2023-03-21T03:48:35;10.30;73.10
51215;DHT22;63849;47.546;19.254;2023-03-21T03:51:35;10.40;72.90
51215;DHT22;63849;47.546;19.254;2023-03-21T03:54:12;10.40;72.90
51215;DHT22;63849;47.546;19.254;2023-03-21T03:56:42;10.30;72.70
51215;DHT22;63849;47.546;19.254;2023-03-21T03:59:08;10.30;72.70
51215;DHT22;63849;47.546;19.254;2023-03-21T04:01:35;10.30;72.50
51215;DHT22;63849;47.546;19.254;2023-03-21T04:04:00;10.40;72.50
51215;DHT22;63849;47.546;19.254;2023-03-21T04:06:26;10.30;72.60
51215;DHT22;63849;47.546;19.254;2023-03-21T04:08:57;10.30;72.70
51215;DHT22;63849;47.546;19.254;2023-03-21T04:11:23;10.30;72.60
51215;DHT22;63849;47.546;19.254;2023-03-21T04:13:49;10.40;72.60
51215;DHT22;63849;47.546;19.254;2023-03-21T04:16:14;10.40;72.60
51215;DHT22;63849;47.546;19.254;2023-03-21T04:18:40;10.40;72.30
51215;DHT22;63849;47.546;19.254;2023-03-21T04:21:09;10.40;72.20
51215;DHT22;63849;47.546;19.254;2023-03-21T04:23:37;10.40;72.10
51215;DHT22;63849;47.546;19.254;2023-03-21T04:26:04;10.40;72.00
51215;DHT22;63849;47.546;19.254;2023-03-21T04:28:31;10.40;72.30
51215;DHT22;63849;47.546;19.254;2023-03-21T04:30:58;10.30;72.20
51215;DHT22;63849;47.546;19.254;2023-03-21T04:33:24;10.40;72.10
51215;DHT22;63849;47.546;19.254;2023-03-21T04:35:53;10.40;71.70
51215;DHT22;63849;47.546;19.254;2023-03-21T04:38:24;10.30;71.80
51215;DHT22;63849;47.546;19.254;2023-03-21T04:40:56;10.30;72.30
51215;DHT22;63849;47.546;19.254;2023-03-21T04:43:22;10.30;72.00
51215;DHT22;63849;47.546;19.254;2023-03-21T04:45:49;10.10;72.30
51215;DHT22;63849;47.546;19.254;2023-03-21T04:48:15;10.30;72.00
51215;DHT22;63849;47.546;19.254;2023-03-21T04:50:45;10.10;72.20
51215;DHT22;63849;47.546;19.254;2023-03-21T04:53:11;9.90;72.60
51215;DHT22;63849;47.546;19.254;2023-03-21T04:55:37;9.90;72.70
51215;DHT22;63849;47.546;19.254;2023-03-21T04:58:03;9.90;72.50
51215;DHT22;63849;47.546;19.254;2023-03-21T05:00:30;9.80;73.20
51215;DHT22;63849;47.546;19.254;2023-03-21T05:02:57;9.70;73.50
51215;DHT22;63849;47.546;19.254;2023-03-21T05:05:23;9.60;73.60
51215;DHT22;63849;47.546;19.254;2023-03-21T05:07:50;9.70;73.70
51215;DHT22;63849;47.546;19.254;2023-03-21T05:10:16;9.80;73.50
51215;DHT22;63849;47.546;19.254;2023-03-21T05:12:41;9.70;73.60
51215;DHT22;63849;47.546;19.254;2023-03-21T05:15:08;9.60;73.90
51215;DHT22;63849;47.546;19.254;2023-03-21T05:17:35;9.80;73.60
51215;DHT22;63849;47.546;19.254;2023-03-21T05:20:01;9.70;73.90
51215;DHT22;63849;47.546;19.254;2023-03-21T05:22:32;9.90;73.60
51215;DHT22;63849;47.546;19.254;2023-03-21T05:25:08;10.00;73.40
51215;DHT22;63849;47.546;19.254;2023-03-21T05:27:35;10.10;73.20
51215;DHT22;63849;47.546;19.254;2023-03-21T05:30:06;10.10;73.20
51215;DHT22;63849;47.546;19.254;2023-03-21T05:32:32;10.30;73.20
51215;DHT22;63849;47.546;19.254;2023-03-21T05:34:58;10.30;73.20
51215;DHT22;63849;47.546;19.254;2023-03-21T05:37:24;10.50;72.80
51215;DHT22;63849;47.546;19.254;2023-03-21T05:39:49;10.50;72.70
51215;DHT22;63849;47.546;19.254;2023-03-21T05:42:16;10.50;72.90
51215;DHT22;63849;47.546;19.254;2023-03-21T05:44:43;10.60;72.80
51215;DHT22;63849;47.546;19.254;2023-03-21T05:47:10;10.70;72.70
51215;DHT22;63849;47.546;19.254;2023-03-21T05:49:36;10.80;72.40
51215;DHT22;63849;47.546;19.254;2023-03-21T05:52:02;10.80;72.10
51215;DHT22;63849;47.546;19.254;2023-03-21T05:54:27;10.90;72.00
51215;DHT22;63849;47.546;19.254;2023-03-21T05:56:53;11.20;71.50
51215;DHT22;63849;47.546;19.254;2023-03-21T05:59:19;11.30;71.10
51215;DHT22;63849;47.546;19.254;2023-03-21T06:01:45;11.40;70.80
51215;DHT22;63849;47.546;19.254;2023-03-21T06:04:11;11.40;70.30
51215;DHT22;63849;47.546;19.254;2023-03-21T06:06:37;11.50;70.40
51215;DHT22;63849;47.546;19.254;2023-03-21T06:09:02;11.70;69.80
51215;DHT22;63849;47.546;19.254;2023-03-21T06:11:31;11.90;69.90
51215;DHT22;63849;47.546;19.254;2023-03-21T06:13:59;12.00;69.30
51215;DHT22;63849;47.546;19.254;2023-03-21T06:16:24;12.10;69.00
51215;DHT22;63849;47.546;19.254;2023-03-21T06:18:50;12.30;68.40
51215;DHT22;63849;47.546;19.254;2023-03-21T06:21:16;12.40;67.80
51215;DHT22;63849;47.546;19.254;2023-03-21T06:23:42;12.60;67.50
51215;DHT22;63849;47.546;19.254;2023-03-21T06:26:08;12.70;67.50
51215;DHT22;63849;47.546;19.254;2023-03-21T06:28:33;12.80;66.80
51215;DHT22;63849;47.546;19.254;2023-03-21T06:30:59;12.90;66.30
51215;DHT22;63849;47.546;19.254;2023-03-21T06:33:25;12.90;66.00
51215;DHT22;63849;47.546;19.254;2023-03-21T06:35:55;12.90;66.10
51215;DHT22;63849;47.546;19.254;2023-03-21T06:38:22;12.80;66.50
51215;DHT22;63849;47.546;19.254;2023-03-21T06:40:49;12.90;66.10
51215;DHT22;63849;47.546;19.254;2023-03-21T06:43:14;12.90;65.90
51215;DHT22;63849;47.546;19.254;2023-03-21T06:45:43;13.00;65.80
51215;DHT22;63849;47.546;19.254;2023-03-21T06:48:09;13.20;65.70
51215;DHT22;63849;47.546;19.254;2023-03-21T06:50:35;13.20;66.20
51215;DHT22;63849;47.546;19.254;2023-03-21T06:53:01;13.30;65.40
51215;DHT22;63849;47.546;19.254;2023-03-21T06:55:27;13.40;65.20
51215;DHT22;63849;47.546;19.254;2023-03-21T06:57:56;13.50;64.70
51215;DHT22;63849;47.546;19.254;2023-03-21T07:00:22;13.50;65.60
51215;DHT22;63849;47.546;19.254;2023-03-21T07:02:49;13.50;65.10
51215;DHT22;63849;47.546;19.254;2023-03-21T07:05:16;13.60;65.20
51215;DHT22;63849;47.546;19.254;2023-03-21T07:07:42;13.70;65.00
51215;DHT22;63849;47.546;19.254;2023-03-21T07:10:08;13.80;64.60
51215;DHT22;63849;47.546;19.254;2023-03-21T07:12:34;13.90;64.00
51215;DHT22;63849;47.546;19.254;2023-03-21T07:15:05;14.00;63.50
51215;DHT22;63849;47.546;19.254;2023-03-21T07:17:32;14.00;62.60
51215;DHT22;63849;47.546;19.254;2023-03-21T07:19:58;14.20;62.60
51215;DHT22;63849;47.546;19.254;2023-03-21T07:22:24;14.20;62.60
51215;DHT22;63849;47.546;19.254;2023-03-21T07:24:50;14.20;62.30
51215;DHT22;63849;47.546;19.254;2023-03-21T07:27:17;14.10;62.20
51215;DHT22;63849;47.546;19.254;2023-03-21T07:29:43;14.00;62.90
51215;DHT22;63849;47.546;19.254;2023-03-21T07:32:09;13.90;63.10
51215;DHT22;63849;47.546;19.254;2023-03-21T07:34:36;13.90;63.60
51215;DHT22;63849;47.546;19.254;2023-03-21T07:37:03;13.70;63.80
51215;DHT22;63849;47.546;19.254;2023-03-21T07:39:29;13.70;64.20
51215;DHT22;63849;47.546;19.254;2023-03-21T07:41:57;13.60;64.70
51215;DHT22;63849;47.546;19.254;2023-03-21T07:44:23;13.70;64.50
51215;DHT22;63849;47.546;19.254;2023-03-21T07:46:49;13.70;64.70
51215;DHT22;63849;47.546;19.254;2023-03-21T07:49:15;13.80;64.90
51215;DHT22;63849;47.546;19.254;2023-03-21T07:51:41;13.80;64.00
51215;DHT22;63849;47.546;19.254;2023-03-21T07:54:07;13.90;63.60
51215;DHT22;63849;47.546;19.254;2023-03-21T07:56:32;13.90;62.80
51215;DHT22;63849;47.546;19.254;2023-03-21T07:58:58;13.80;63.40
51215;DHT22;63849;47.546;19.254;2023-03-21T08:01:25;13.90;62.90
51215;DHT22;63849;47.546;19.254;2023-03-21T08:03:51;13.90;62.80
51215;DHT22;63849;47.546;19.254;2023-03-21T08:06:21;13.90;64.00
51215;DHT22;63849;47.546;19.254;2023-03-21T08:08:47;13.90;63.80
51215;DHT22;63849;47.546;19.254;2023-03-21T08:11:13;14.00;64.10
51215;DHT22;63849;47.546;19.254;2023-03-21T08:13:39;14.10;64.20
51215;DHT22;63849;47.546;19.254;2023-03-21T08:16:06;14.30;63.00
51215;DHT22;63849;47.546;19.254;2023-03-21T08:18:33;14.40;63.30
51215;DHT22;63849;47.546;19.254;2023-03-21T08:20:59;14.40;61.20
51215;DHT22;63849;47.546;19.254;2023-03-21T08:23:25;14.50;61.70
51215;DHT22;63849;47.546;19.254;2023-03-21T08:25:52;14.50;61.60
51215;DHT22;63849;47.546;19.254;2023-03-21T08:28:19;14.70;61.40
51215;DHT22;63849;47.546;19.254;2023-03-21T08:30:46;14.60;61.50
51215;DHT22;63849;47.546;19.254;2023-03-21T08:33:11;14.60;61.10
51215;DHT22;63849;47.546;19.254;2023-03-21T08:35:41;14.60;62.10
